createdAt,value
2023-02-27T00:02:43.425Z,80.08
2023-02-27T00:07:47.036Z,80.22
2023-02-27T00:12:50.858Z,80.56
2023-02-27T00:17:54.269Z,80.93
2023-02-27T00:22:57.888Z,81.07
2023-02-27T00:28:01.916Z,81.59
2023-02-27T00:33:05.735Z,81.65
2023-02-27T00:38:09.251Z,81.58
2023-02-27T00:43:12.766Z,81.64
2023-02-27T00:48:16.999Z,81.50
2023-02-27T00:53:20.716Z,81.43
2023-02-27T00:58:24.337Z,81.67
2023-02-27T01:03:27.855Z,81.88
2023-02-27T01:08:31.475Z,81.96
2023-02-27T01:13:35.100Z,81.82
2023-02-27T01:18:38.811Z,81.90
2023-02-27T01:23:42.231Z,81.87
2023-02-27T01:28:45.746Z,81.83
2023-02-27T01:33:49.467Z,81.71
2023-02-27T01:38:53.095Z,81.91
2023-02-27T01:44:03.071Z,81.80
2023-02-27T01:49:13.323Z,81.75
2023-02-27T01:54:21.040Z,81.70
2023-02-27T01:59:24.959Z,81.54
2023-02-27T02:04:33.725Z,81.74
2023-02-27T02:09:41.016Z,81.80
2023-02-27T02:14:45.039Z,81.79
2023-02-27T02:20:10.359Z,81.74
2023-02-27T02:25:46.230Z,81.59
2023-02-27T02:31:08.136Z,81.63
2023-02-27T02:36:30.226Z,81.63
2023-02-27T02:41:52.174Z,81.68
2023-02-27T02:47:18.127Z,81.56
2023-02-27T02:52:59.090Z,81.63
2023-02-27T02:58:12.566Z,81.45
2023-02-27T03:03:37.474Z,81.19
2023-02-27T03:08:50.004Z,81.18
2023-02-27T03:14:01.403Z,80.99
2023-02-27T03:19:17.206Z,81.02
2023-02-27T03:24:33.007Z,81.10
2023-02-27T03:30:01.346Z,81.28
2023-02-27T03:35:07.586Z,80.97
2023-02-27T03:40:59.632Z,81.10
2023-02-27T03:46:17.840Z,81.05
2023-02-27T03:51:23.903Z,80.97
2023-02-27T03:56:38.038Z,81.28
2023-02-27T04:01:44.124Z,81.14
2023-02-27T04:07:24.887Z,80.95
2023-02-27T04:12:50.025Z,81.15
2023-02-27T04:18:12.286Z,81.32
2023-02-27T04:23:47.437Z,81.17
2023-02-27T04:28:59.960Z,81.22
2023-02-27T04:34:23.855Z,81.26
2023-02-27T04:39:46.629Z,81.37
2023-02-27T04:44:52.416Z,81.57
2023-02-27T04:50:19.872Z,81.35
2023-02-27T04:55:46.734Z,81.04
2023-02-27T05:01:01.526Z,80.69
2023-02-27T05:06:05.439Z,80.57
2023-02-27T05:11:29.352Z,80.65
2023-02-27T05:16:45.758Z,80.42
2023-02-27T05:21:52.849Z,80.15
2023-02-27T05:26:59.245Z,79.95
2023-02-27T05:32:06.075Z,79.95
2023-02-27T05:37:18.447Z,79.81
2023-02-27T05:42:36.918Z,79.48
2023-02-27T05:47:47.899Z,79.19
2023-02-27T05:52:54.562Z,79.38
2023-02-27T05:58:25.263Z,79.36
2023-02-27T06:03:31.692Z,79.09
2023-02-27T06:08:36.168Z,79.18
2023-02-27T06:13:41.804Z,79.12
2023-02-27T06:18:45.867Z,78.92
2023-02-27T06:23:50.101Z,79.09
2023-02-27T06:28:53.402Z,78.93
2023-02-27T06:33:57.026Z,78.19
2023-02-27T06:39:00.738Z,78.44
2023-02-27T06:44:04.354Z,78.50
2023-02-27T06:49:07.767Z,78.70
2023-02-27T06:54:11.283Z,78.58
2023-02-27T06:59:15.105Z,78.56
2023-02-27T07:04:18.582Z,78.09
2023-02-27T07:09:23.466Z,78.20
2023-02-27T07:14:26.990Z,78.40
2023-02-27T07:19:32.043Z,77.89
2023-02-27T07:24:36.899Z,77.72
2023-02-27T07:29:40.510Z,77.82
2023-02-27T07:34:44.145Z,77.76
2023-02-27T07:39:47.736Z,77.36
2023-02-27T07:44:51.150Z,77.17
2023-02-27T07:49:55.386Z,77.39
2023-02-27T07:54:59.002Z,76.59
2023-02-27T08:00:06.460Z,76.96
2023-02-27T08:05:10.337Z,77.06
2023-02-27T08:10:16.514Z,77.16
2023-02-27T08:15:20.643Z,76.73
2023-02-27T08:20:24.797Z,75.08
2023-02-27T08:25:28.305Z,75.27
2023-02-27T08:30:32.183Z,74.77
2023-02-27T08:35:36.282Z,73.55
2023-02-27T08:40:39.959Z,72.17
2023-02-27T08:45:43.706Z,72.18
2023-02-27T08:50:47.808Z,72.29
2023-02-27T08:55:52.147Z,72.10
2023-02-27T09:00:55.663Z,71.45
2023-02-27T09:05:59.300Z,70.07
2023-02-27T09:11:03.336Z,70.35
2023-02-27T09:16:07.578Z,71.49
2023-02-27T09:21:11.050Z,71.21
2023-02-27T09:26:14.671Z,71.19
2023-02-27T09:31:18.601Z,69.63
2023-02-27T09:36:22.006Z,68.61
2023-02-27T09:41:31.771Z,67.13
2023-02-27T09:46:35.387Z,67.23
2023-02-27T09:51:39.005Z,66.42
2023-02-27T09:56:57.983Z,66.09
2023-02-27T10:02:19.892Z,64.83
2023-02-27T10:07:35.021Z,65.63
2023-02-27T10:12:50.621Z,64.21
2023-02-27T10:18:10.493Z,63.40
2023-02-27T10:23:51.717Z,63.30
2023-02-27T10:28:55.336Z,62.54
2023-02-27T10:34:00.785Z,62.17
2023-02-27T10:39:12.020Z,61.83
2023-02-27T10:44:18.932Z,58.76
2023-02-27T10:49:22.716Z,60.60
2023-02-27T10:54:26.343Z,62.00
2023-02-27T11:00:01.543Z,60.98
2023-02-27T11:05:21.793Z,60.47
2023-02-27T11:10:29.298Z,58.89
2023-02-27T11:15:35.623Z,57.35
2023-02-27T11:20:43.646Z,59.63
2023-02-27T11:25:48.146Z,58.79
2023-02-27T11:31:03.539Z,58.74
2023-02-27T11:36:08.077Z,57.99
2023-02-27T11:41:12.003Z,58.67
2023-02-27T11:46:39.396Z,58.64
2023-02-27T11:51:51.497Z,59.43
2023-02-27T11:57:05.000Z,58.78
2023-02-27T12:02:23.377Z,59.23
2023-02-27T12:07:36.347Z,59.16
2023-02-27T12:13:36.395Z,58.57
2023-02-27T12:19:18.730Z,57.55
2023-02-27T12:24:47.318Z,57.49
2023-02-27T12:30:17.452Z,58.19
2023-02-27T12:35:33.522Z,56.57
2023-02-27T12:40:43.119Z,57.30
2023-02-27T12:45:49.132Z,56.46
2023-02-27T12:51:17.381Z,55.13
2023-02-27T12:56:23.265Z,54.85
2023-02-27T13:01:29.550Z,55.78
2023-02-27T13:06:46.059Z,55.22
2023-02-27T13:11:54.910Z,54.12
2023-02-27T13:17:27.192Z,54.80
2023-02-27T13:22:45.255Z,54.08
2023-02-27T13:28:00.540Z,53.95
2023-02-27T13:33:22.776Z,53.02
2023-02-27T13:38:59.393Z,53.36
2023-02-27T13:44:21.352Z,54.65
2023-02-27T13:49:30.228Z,54.72
2023-02-27T13:54:40.457Z,54.56
2023-02-27T13:59:53.624Z,53.93
2023-02-27T14:05:01.079Z,52.72
2023-02-27T14:10:11.714Z,52.60
2023-02-27T14:15:18.169Z,53.21
2023-02-27T14:20:31.111Z,52.95
2023-02-27T14:25:41.575Z,51.91
2023-02-27T14:30:56.276Z,52.21
2023-02-27T14:36:04.894Z,51.73
2023-02-27T14:41:33.294Z,51.48
2023-02-27T14:46:39.586Z,51.82
2023-02-27T14:51:43.598Z,51.65
2023-02-27T14:56:57.355Z,52.05
2023-02-27T15:02:04.521Z,52.46
2023-02-27T15:07:24.879Z,51.95
2023-02-27T15:12:29.100Z,52.04
2023-02-27T15:17:44.090Z,51.09
2023-02-27T15:22:47.327Z,51.36
2023-02-27T15:27:50.816Z,48.82
2023-02-27T15:32:55.926Z,47.37
2023-02-27T15:38:01.327Z,47.79
2023-02-27T15:43:05.247Z,44.28
2023-02-27T15:48:18.693Z,47.38
2023-02-27T15:53:27.595Z,46.64
2023-02-27T15:58:39.770Z,45.74
2023-02-27T16:03:45.990Z,46.94
2023-02-27T16:09:03.243Z,48.00
2023-02-27T16:14:08.830Z,48.73
2023-02-27T16:19:32.873Z,49.30
2023-02-27T16:24:36.143Z,49.86
2023-02-27T16:29:45.592Z,50.27
2023-02-27T16:34:49.107Z,50.56
2023-02-27T16:39:52.562Z,50.91
2023-02-27T16:44:55.828Z,51.28
2023-02-27T16:49:59.369Z,51.44
2023-02-27T16:55:02.551Z,51.65
2023-02-27T17:00:10.231Z,51.93
2023-02-27T17:05:15.547Z,52.06
2023-02-27T17:10:27.879Z,52.25
2023-02-27T17:15:31.369Z,52.62
2023-02-27T17:20:34.777Z,53.54
2023-02-27T17:25:38.089Z,53.57
2023-02-27T17:30:42.140Z,53.84
2023-02-27T17:35:45.440Z,53.91
2023-02-27T17:40:48.841Z,54.03
2023-02-27T17:45:52.184Z,54.16
2023-02-27T17:50:55.438Z,54.95
2023-02-27T17:55:58.778Z,54.91
2023-02-27T18:01:07.466Z,55.33
2023-02-27T18:06:10.856Z,55.96
2023-02-27T18:11:18.630Z,56.32
2023-02-27T18:16:22.364Z,56.26
2023-02-27T18:21:25.616Z,56.22
2023-02-27T18:26:31.977Z,56.32
2023-02-27T18:31:46.214Z,56.48
2023-02-27T18:36:49.630Z,56.81
2023-02-27T18:41:52.833Z,56.61
2023-02-27T18:46:56.149Z,56.89
2023-02-27T18:51:59.465Z,56.88
2023-02-27T18:57:02.870Z,56.93
2023-02-27T19:02:06.045Z,57.25
2023-02-27T19:07:10.512Z,57.26
2023-02-27T19:12:13.930Z,57.38
2023-02-27T19:17:17.216Z,57.75
2023-02-27T19:22:21.065Z,58.01
2023-02-27T19:27:24.589Z,58.30
2023-02-27T19:32:28.697Z,58.35
2023-02-27T19:37:32.018Z,58.12
2023-02-27T19:42:35.337Z,58.94
2023-02-27T19:47:38.741Z,59.28
2023-02-27T19:52:42.177Z,59.19
2023-02-27T19:57:45.484Z,59.35
2023-02-27T20:02:48.982Z,59.80
2023-02-27T20:07:53.312Z,59.65
2023-02-27T20:12:56.448Z,60.01
2023-02-27T20:17:59.836Z,59.97
2023-02-27T20:23:03.141Z,60.22
2023-02-27T20:28:06.455Z,60.35
2023-02-27T20:33:09.669Z,60.39
2023-02-27T20:38:17.374Z,60.75
2023-02-27T20:43:20.787Z,60.90
2023-02-27T20:48:24.512Z,60.83
2023-02-27T20:53:28.030Z,61.36
2023-02-27T20:58:32.053Z,61.35
2023-02-27T21:03:39.222Z,61.68
2023-02-27T21:08:45.945Z,61.65
2023-02-27T21:13:50.387Z,61.61
2023-02-27T21:18:56.638Z,62.46
2023-02-27T21:24:00.745Z,62.68
2023-02-27T21:29:14.242Z,62.88
2023-02-27T21:34:21.343Z,62.62
2023-02-27T21:39:28.491Z,62.67
2023-02-27T21:44:32.332Z,62.87
2023-02-27T21:49:36.398Z,63.20
2023-02-27T21:54:39.811Z,63.48
2023-02-27T21:59:43.325Z,63.40
2023-02-27T22:04:47.038Z,63.26
2023-02-27T22:09:52.922Z,63.87
2023-02-27T22:14:56.320Z,64.39
2023-02-27T22:19:59.848Z,64.54
2023-02-27T22:25:03.557Z,64.26
2023-02-27T22:30:07.749Z,63.88
2023-02-27T22:35:11.313Z,63.89
2023-02-27T22:40:18.017Z,64.11
2023-02-27T22:45:21.514Z,64.87
2023-02-27T22:50:25.109Z,65.11
2023-02-27T22:55:28.956Z,65.22
2023-02-27T23:00:33.900Z,65.17
2023-02-27T23:05:38.266Z,65.13
2023-02-27T23:10:42.678Z,65.02
2023-02-27T23:15:49.153Z,65.52
2023-02-27T23:20:52.673Z,65.25
2023-02-27T23:25:57.317Z,65.07
2023-02-27T23:31:01.551Z,65.19
2023-02-27T23:36:06.323Z,65.24
2023-02-27T23:41:10.534Z,65.69
2023-02-27T23:46:15.162Z,65.52
2023-02-27T23:51:18.483Z,66.32
2023-02-27T23:56:24.962Z,65.96
